sensor_id;sensor_type;location;lat;lon;timestamp;pressure;altitude;pressure_sealevel;temperature;humidity
4024;BME280;2026;51.002;13.668;2023-02-20T00:00:30;99720.00;;;2.99;93.18
4024;BME280;2026;51.002;13.668;2023-02-20T00:05:35;99716.78;;;3.15;92.52
4024;BME280;2026;51.002;13.668;2023-02-20T00:10:37;99723.34;;;3.10;92.91
4024;BME280;2026;51.002;13.668;2023-02-20T00:15:40;99724.69;;;3.14;92.65
4024;BME280;2026;51.002;13.668;2023-02-20T00:20:45;99720.38;;;3.04;93.46
4024;BME280;2026;51.002;13.668;2023-02-20T00:25:48;99713.44;;;3.23;93.69
4024;BME280;2026;51.002;13.668;2023-02-20T00:30:50;99715.50;;;3.38;93.55
4024;BME280;2026;51.002;13.668;2023-02-20T00:35:55;99693.88;;;3.47;94.01
4024;BME280;2026;51.002;13.668;2023-02-20T00:40:58;99687.41;;;3.69;94.37
4024;BME280;2026;51.002;13.668;2023-02-20T00:46:01;99683.84;;;3.97;93.50
4024;BME280;2026;51.002;13.668;2023-02-20T00:51:06;99694.22;;;3.97;93.89
4024;BME280;2026;51.002;13.668;2023-02-20T00:56:08;99678.47;;;4.17;92.97
4024;BME280;2026;51.002;13.668;2023-02-20T01:01:13;99672.91;;;4.11;93.62
4024;BME280;2026;51.002;13.668;2023-02-20T01:06:18;99673.94;;;4.19;93.64
4024;BME280;2026;51.002;13.668;2023-02-20T01:11:21;99657.25;;;4.21;93.61
4024;BME280;2026;51.002;13.668;2023-02-20T01:16:26;99667.22;;;4.42;93.15
4024;BME280;2026;51.002;13.668;2023-02-20T01:21:30;99665.28;;;4.36;93.96
4024;BME280;2026;51.002;13.668;2023-02-20T01:26:33;99657.28;;;4.29;94.36
4024;BME280;2026;51.002;13.668;2023-02-20T01:31:37;99640.75;;;4.39;94.00
4024;BME280;2026;51.002;13.668;2023-02-20T01:36:48;99647.28;;;4.43;94.39
4024;BME280;2026;51.002;13.668;2023-02-20T01:41:54;99635.44;;;4.49;94.31
4024;BME280;2026;51.002;13.668;2023-02-20T01:47:00;99629.97;;;4.60;94.55
4024;BME280;2026;51.002;13.668;2023-02-20T01:52:13;99626.88;;;4.56;95.07
4024;BME280;2026;51.002;13.668;2023-02-20T01:57:19;99625.72;;;4.59;95.71
4024;BME280;2026;51.002;13.668;2023-02-20T02:02:24;99625.78;;;4.67;95.54
4024;BME280;2026;51.002;13.668;2023-02-20T02:07:31;99624.47;;;4.72;95.96
4024;BME280;2026;51.002;13.668;2023-02-20T02:12:35;99627.09;;;4.88;95.81
4024;BME280;2026;51.002;13.668;2023-02-20T02:17:52;99624.00;;;4.84;96.58
4024;BME280;2026;51.002;13.668;2023-02-20T02:29:03;99609.25;;;4.93;97.25
4024;BME280;2026;51.002;13.668;2023-02-20T02:39:58;99590.72;;;4.96;97.27
4024;BME280;2026;51.002;13.668;2023-02-20T02:45:09;99598.72;;;5.11;96.64
4024;BME280;2026;51.002;13.668;2023-02-20T02:50:16;99612.84;;;5.09;96.68
4024;BME280;2026;51.002;13.668;2023-02-20T02:55:25;99592.69;;;5.19;96.17
4024;BME280;2026;51.002;13.668;2023-02-20T03:00:31;99572.53;;;5.13;96.31
4024;BME280;2026;51.002;13.668;2023-02-20T03:05:39;99560.84;;;5.17;95.80
4024;BME280;2026;51.002;13.668;2023-02-20T03:10:50;99558.06;;;5.35;94.40
4024;BME280;2026;51.002;13.668;2023-02-20T03:15:58;99543.09;;;5.46;93.87
4024;BME280;2026;51.002;13.668;2023-02-20T03:21:07;99553.84;;;5.43;93.84
4024;BME280;2026;51.002;13.668;2023-02-20T03:26:17;99553.50;;;5.46;93.47
4024;BME280;2026;51.002;13.668;2023-02-20T03:31:27;99551.53;;;5.48;93.65
4024;BME280;2026;51.002;13.668;2023-02-20T03:36:36;99547.47;;;5.45;94.06
4024;BME280;2026;51.002;13.668;2023-02-20T03:42:00;99539.69;;;5.53;93.55
4024;BME280;2026;51.002;13.668;2023-02-20T03:47:28;99543.56;;;5.49;93.57
4024;BME280;2026;51.002;13.668;2023-02-20T03:52:36;99533.19;;;5.49;94.20
4024;BME280;2026;51.002;13.668;2023-02-20T03:57:44;99536.41;;;5.51;94.03
4024;BME280;2026;51.002;13.668;2023-02-20T04:02:51;99543.72;;;5.56;94.19
4024;BME280;2026;51.002;13.668;2023-02-20T04:08:03;99540.63;;;5.52;94.72
4024;BME280;2026;51.002;13.668;2023-02-20T04:13:11;99536.75;;;5.57;94.36
4024;BME280;2026;51.002;13.668;2023-02-20T04:18:20;99529.06;;;5.63;94.45
4024;BME280;2026;51.002;13.668;2023-02-20T04:23:24;99505.50;;;5.65;94.84
4024;BME280;2026;51.002;13.668;2023-02-20T04:28:29;99492.81;;;5.70;94.55
4024;BME280;2026;51.002;13.668;2023-02-20T04:33:38;99498.31;;;5.67;94.62
4024;BME280;2026;51.002;13.668;2023-02-20T04:38:47;99488.53;;;5.77;94.91
4024;BME280;2026;51.002;13.668;2023-02-20T04:43:55;99492.09;;;5.76;95.20
4024;BME280;2026;51.002;13.668;2023-02-20T04:49:12;99505.78;;;5.78;95.52
4024;BME280;2026;51.002;13.668;2023-02-20T04:54:17;99500.22;;;5.82;95.93
4024;BME280;2026;51.002;13.668;2023-02-20T04:59:21;99499.09;;;5.84;95.66
4024;BME280;2026;51.002;13.668;2023-02-20T05:04:26;99502.75;;;5.98;94.75
4024;BME280;2026;51.002;13.668;2023-02-20T05:09:29;99497.22;;;6.01;94.49
4024;BME280;2026;51.002;13.668;2023-02-20T05:14:34;99490.41;;;6.00;93.83
4024;BME280;2026;51.002;13.668;2023-02-20T05:19:37;99486.41;;;6.13;92.82
4024;BME280;2026;51.002;13.668;2023-02-20T05:24:41;99464.28;;;6.17;92.67
4024;BME280;2026;51.002;13.668;2023-02-20T05:29:47;99465.69;;;6.19;92.20
4024;BME280;2026;51.002;13.668;2023-02-20T05:34:51;99448.91;;;6.22;92.90
4024;BME280;2026;51.002;13.668;2023-02-20T05:39:54;99426.16;;;6.24;91.60
4024;BME280;2026;51.002;13.668;2023-02-20T05:44:58;99428.03;;;6.30;91.05
4024;BME280;2026;51.002;13.668;2023-02-20T05:50:03;99419.81;;;6.18;90.38
4024;BME280;2026;51.002;13.668;2023-02-20T05:55:07;99423.00;;;6.29;88.09
4024;BME280;2026;51.002;13.668;2023-02-20T06:00:12;99416.00;;;6.29;89.01
4024;BME280;2026;51.002;13.668;2023-02-20T06:05:15;99427.09;;;6.23;88.94
4024;BME280;2026;51.002;13.668;2023-02-20T06:10:19;99431.28;;;6.32;88.03
4024;BME280;2026;51.002;13.668;2023-02-20T06:15:23;99435.97;;;6.37;88.11
4024;BME280;2026;51.002;13.668;2023-02-20T06:20:26;99441.97;;;6.38;88.14
4024;BME280;2026;51.002;13.668;2023-02-20T06:25:29;99435.78;;;6.39;88.33
4024;BME280;2026;51.002;13.668;2023-02-20T06:30:33;99434.81;;;6.40;87.61
4024;BME280;2026;51.002;13.668;2023-02-20T06:35:36;99424.88;;;6.43;86.61
4024;BME280;2026;51.002;13.668;2023-02-20T06:40:39;99424.59;;;6.53;86.19
4024;BME280;2026;51.002;13.668;2023-02-20T06:45:44;99437.00;;;6.51;85.80
4024;BME280;2026;51.002;13.668;2023-02-20T06:50:47;99416.06;;;6.44;85.07
4024;BME280;2026;51.002;13.668;2023-02-20T06:55:50;99422.66;;;6.55;84.76
4024;BME280;2026;51.002;13.668;2023-02-20T07:00:54;99432.72;;;6.58;84.25
4024;BME280;2026;51.002;13.668;2023-02-20T07:05:57;99430.41;;;6.63;82.28
4024;BME280;2026;51.002;13.668;2023-02-20T07:11:00;99392.22;;;6.71;80.97
4024;BME280;2026;51.002;13.668;2023-02-20T07:16:05;99398.69;;;6.75;80.55
4024;BME280;2026;51.002;13.668;2023-02-20T07:21:08;99405.09;;;6.87;79.58
4024;BME280;2026;51.002;13.668;2023-02-20T07:26:16;99384.50;;;6.93;77.38
4024;BME280;2026;51.002;13.668;2023-02-20T07:31:21;99381.16;;;6.99;77.21
4024;BME280;2026;51.002;13.668;2023-02-20T07:36:24;99373.13;;;7.09;75.53
4024;BME280;2026;51.002;13.668;2023-02-20T07:41:28;99365.13;;;7.10;74.19
4024;BME280;2026;51.002;13.668;2023-02-20T07:46:34;99361.44;;;7.20;74.04
4024;BME280;2026;51.002;13.668;2023-02-20T07:51:37;99371.13;;;7.26;72.41
4024;BME280;2026;51.002;13.668;2023-02-20T07:56:41;99342.47;;;7.48;70.76
4024;BME280;2026;51.002;13.668;2023-02-20T08:01:45;99340.69;;;7.48;71.41
4024;BME280;2026;51.002;13.668;2023-02-20T08:06:48;99359.94;;;7.47;71.40
4024;BME280;2026;51.002;13.668;2023-02-20T08:11:51;99371.16;;;7.48;70.50
4024;BME280;2026;51.002;13.668;2023-02-20T08:16:56;99333.78;;;7.62;70.21
4024;BME280;2026;51.002;13.668;2023-02-20T08:21:59;99304.09;;;7.63;70.34
4024;BME280;2026;51.002;13.668;2023-02-20T08:27:02;99321.75;;;8.05;70.54
4024;BME280;2026;51.002;13.668;2023-02-20T08:32:06;99327.31;;;8.23;69.79
4024;BME280;2026;51.002;13.668;2023-02-20T08:37:10;99326.97;;;8.05;71.23
4024;BME280;2026;51.002;13.668;2023-02-20T08:42:14;99335.13;;;8.80;69.47
4024;BME280;2026;51.002;13.668;2023-02-20T08:47:19;99321.00;;;9.17;68.36
4024;BME280;2026;51.002;13.668;2023-02-20T08:52:24;99317.13;;;8.99;67.92
4024;BME280;2026;51.002;13.668;2023-02-20T08:57:27;99323.78;;;9.08;69.16
4024;BME280;2026;51.002;13.668;2023-02-20T09:02:31;99299.69;;;9.20;67.66
4024;BME280;2026;51.002;13.668;2023-02-20T09:07:34;99289.31;;;9.47;67.18
4024;BME280;2026;51.002;13.668;2023-02-20T09:12:37;99263.13;;;9.40;66.18
4024;BME280;2026;51.002;13.668;2023-02-20T09:17:44;99257.06;;;9.46;67.00
4024;BME280;2026;51.002;13.668;2023-02-20T09:22:50;99261.34;;;9.54;66.32
4024;BME280;2026;51.002;13.668;2023-02-20T09:27:53;99246.84;;;9.58;66.65
4024;BME280;2026;51.002;13.668;2023-02-20T09:32:58;99222.31;;;9.80;65.84
4024;BME280;2026;51.002;13.668;2023-02-20T09:38:01;99220.69;;;9.85;65.99
4024;BME280;2026;51.002;13.668;2023-02-20T09:43:18;99225.31;;;9.90;66.22
4024;BME280;2026;51.002;13.668;2023-02-20T09:48:38;99199.53;;;9.94;66.34
4024;BME280;2026;51.002;13.668;2023-02-20T09:53:50;99191.06;;;9.91;65.71
4024;BME280;2026;51.002;13.668;2023-02-20T09:58:57;99207.97;;;10.02;65.29
4024;BME280;2026;51.002;13.668;2023-02-20T10:04:06;99194.84;;;10.16;64.85
4024;BME280;2026;51.002;13.668;2023-02-20T10:09:13;99213.34;;;10.28;64.45
4024;BME280;2026;51.002;13.668;2023-02-20T10:14:31;99200.88;;;10.30;64.48
4024;BME280;2026;51.002;13.668;2023-02-20T10:19:43;99199.59;;;10.46;63.78
4024;BME280;2026;51.002;13.668;2023-02-20T10:25:03;99187.09;;;10.55;63.13
4024;BME280;2026;51.002;13.668;2023-02-20T10:30:11;99194.47;;;10.65;62.35
4024;BME280;2026;51.002;13.668;2023-02-20T10:35:20;99192.44;;;10.73;61.51
4024;BME280;2026;51.002;13.668;2023-02-20T10:40:30;99171.97;;;10.89;61.59
4024;BME280;2026;51.002;13.668;2023-02-20T10:45:41;99188.31;;;10.91;60.35
4024;BME280;2026;51.002;13.668;2023-02-20T10:50:53;99166.09;;;10.94;59.50
4024;BME280;2026;51.002;13.668;2023-02-20T10:56:04;99154.56;;;11.01;59.45
4024;BME280;2026;51.002;13.668;2023-02-20T11:01:13;99168.28;;;11.04;59.84
4024;BME280;2026;51.002;13.668;2023-02-20T11:06:20;99130.84;;;11.15;59.11
4024;BME280;2026;51.002;13.668;2023-02-20T11:11:28;99131.44;;;11.17;58.50
4024;BME280;2026;51.002;13.668;2023-02-20T11:16:36;99092.19;;;11.29;58.26
4024;BME280;2026;51.002;13.668;2023-02-20T11:21:47;99093.78;;;11.30;57.76
4024;BME280;2026;51.002;13.668;2023-02-20T11:26:55;99092.47;;;11.46;58.87
4024;BME280;2026;51.002;13.668;2023-02-20T11:32:16;99084.56;;;11.46;57.27
4024;BME280;2026;51.002;13.668;2023-02-20T11:37:25;99062.06;;;11.57;57.54
4024;BME280;2026;51.002;13.668;2023-02-20T11:42:31;99029.03;;;11.49;56.68
4024;BME280;2026;51.002;13.668;2023-02-20T11:47:35;99042.00;;;11.44;57.40
4024;BME280;2026;51.002;13.668;2023-02-20T11:52:54;99019.09;;;11.70;57.02
4024;BME280;2026;51.002;13.668;2023-02-20T11:57:57;99028.41;;;12.03;56.24
4024;BME280;2026;51.002;13.668;2023-02-20T12:03:09;99032.78;;;12.09;55.31
4024;BME280;2026;51.002;13.668;2023-02-20T12:08:33;99018.03;;;12.08;54.75
4024;BME280;2026;51.002;13.668;2023-02-20T12:13:39;99012.25;;;12.18;54.29
4024;BME280;2026;51.002;13.668;2023-02-20T12:18:48;99014.19;;;12.23;55.10
4024;BME280;2026;51.002;13.668;2023-02-20T12:24:08;98977.34;;;12.42;55.39
4024;BME280;2026;51.002;13.668;2023-02-20T12:29:22;98979.78;;;12.91;54.59
4024;BME280;2026;51.002;13.668;2023-02-20T12:34:49;98970.94;;;13.04;54.76
4024;BME280;2026;51.002;13.668;2023-02-20T12:40:04;98961.84;;;13.24;54.29
4024;BME280;2026;51.002;13.668;2023-02-20T12:45:17;98961.41;;;13.03;54.85
4024;BME280;2026;51.002;13.668;2023-02-20T12:50:33;98971.00;;;12.85;54.91
4024;BME280;2026;51.002;13.668;2023-02-20T12:55:49;98955.06;;;12.56;55.82
4024;BME280;2026;51.002;13.668;2023-02-20T13:00:58;98953.72;;;12.54;56.82
4024;BME280;2026;51.002;13.668;2023-02-20T13:06:01;98953.94;;;12.64;57.13
4024;BME280;2026;51.002;13.668;2023-02-20T13:11:12;98931.44;;;12.80;57.97
4024;BME280;2026;51.002;13.668;2023-02-20T13:16:20;98930.84;;;12.78;57.99
4024;BME280;2026;51.002;13.668;2023-02-20T13:21:28;98938.03;;;12.71;59.37
4024;BME280;2026;51.002;13.668;2023-02-20T13:26:49;98941.59;;;12.64;59.14
4024;BME280;2026;51.002;13.668;2023-02-20T13:31:55;98931.19;;;12.58;59.90
4024;BME280;2026;51.002;13.668;2023-02-20T13:36:59;98908.53;;;12.45;59.92
4024;BME280;2026;51.002;13.668;2023-02-20T13:42:22;98918.34;;;12.37;60.35
4024;BME280;2026;51.002;13.668;2023-02-20T13:47:34;98900.63;;;12.45;60.44
4024;BME280;2026;51.002;13.668;2023-02-20T13:52:40;98912.88;;;12.39;61.19
4024;BME280;2026;51.002;13.668;2023-02-20T13:57:47;98895.84;;;12.42;61.89
4024;BME280;2026;51.002;13.668;2023-02-20T14:02:51;98893.56;;;12.45;62.17
4024;BME280;2026;51.002;13.668;2023-02-20T14:07:54;98872.63;;;12.62;61.75
4024;BME280;2026;51.002;13.668;2023-02-20T14:13:00;98896.75;;;12.59;62.07
4024;BME280;2026;51.002;13.668;2023-02-20T14:18:15;98887.63;;;12.62;61.79
4024;BME280;2026;51.002;13.668;2023-02-20T14:23:23;98886.47;;;12.70;61.51
4024;BME280;2026;51.002;13.668;2023-02-20T14:28:28;98878.00;;;12.79;61.06
4024;BME280;2026;51.002;13.668;2023-02-20T14:33:33;98881.19;;;12.82;61.39
4024;BME280;2026;51.002;13.668;2023-02-20T14:38:51;98881.31;;;12.75;61.52
4024;BME280;2026;51.002;13.668;2023-02-20T14:44:00;98899.84;;;12.80;61.72
4024;BME280;2026;51.002;13.668;2023-02-20T14:49:06;98914.81;;;12.56;62.56
4024;BME280;2026;51.002;13.668;2023-02-20T14:54:18;98910.81;;;12.53;62.73
4024;BME280;2026;51.002;13.668;2023-02-20T14:59:27;98893.78;;;12.56;62.64
4024;BME280;2026;51.002;13.668;2023-02-20T15:04:31;98899.59;;;12.34;63.62
4024;BME280;2026;51.002;13.668;2023-02-20T15:09:36;98907.59;;;12.27;63.90
4024;BME280;2026;51.002;13.668;2023-02-20T15:14:42;98901.31;;;12.28;63.69
4024;BME280;2026;51.002;13.668;2023-02-20T15:19:45;98904.13;;;12.15;64.54
4024;BME280;2026;51.002;13.668;2023-02-20T15:24:49;98925.50;;;12.18;64.16
4024;BME280;2026;51.002;13.668;2023-02-20T15:30:13;98920.94;;;12.14;63.90
4024;BME280;2026;51.002;13.668;2023-02-20T15:35:19;98912.81;;;12.03;64.51
4024;BME280;2026;51.002;13.668;2023-02-20T15:40:25;98910.38;;;12.02;64.85
4024;BME280;2026;51.002;13.668;2023-02-20T15:45:30;98913.47;;;11.99;64.89
4024;BME280;2026;51.002;13.668;2023-02-20T15:50:33;98928.28;;;11.93;64.84
4024;BME280;2026;51.002;13.668;2023-02-20T15:55:36;98923.28;;;11.91;65.34
4024;BME280;2026;51.002;13.668;2023-02-20T16:00:41;98938.09;;;11.86;65.78
4024;BME280;2026;51.002;13.668;2023-02-20T16:05:44;98943.66;;;11.77;65.90
4024;BME280;2026;51.002;13.668;2023-02-20T16:10:47;98937.91;;;11.68;65.96
4024;BME280;2026;51.002;13.668;2023-02-20T16:15:52;98929.69;;;11.65;66.77
4024;BME280;2026;51.002;13.668;2023-02-20T16:20:55;98921.97;;;11.51;67.23
4024;BME280;2026;51.002;13.668;2023-02-20T16:25:59;98934.50;;;11.49;67.50
4024;BME280;2026;51.002;13.668;2023-02-20T16:31:04;98937.91;;;11.50;67.85
4024;BME280;2026;51.002;13.668;2023-02-20T16:36:08;98929.69;;;11.46;68.01
4024;BME280;2026;51.002;13.668;2023-02-20T16:41:20;98933.97;;;11.40;68.51
4024;BME280;2026;51.002;13.668;2023-02-20T16:46:25;98935.56;;;11.41;68.74
4024;BME280;2026;51.002;13.668;2023-02-20T16:51:39;98936.19;;;11.44;68.93
4024;BME280;2026;51.002;13.668;2023-02-20T16:56:49;98941.84;;;11.40;69.36
4024;BME280;2026;51.002;13.668;2023-02-20T17:01:53;98950.75;;;11.39;69.98
4024;BME280;2026;51.002;13.668;2023-02-20T17:06:57;98956.66;;;11.35;70.56
4024;BME280;2026;51.002;13.668;2023-02-20T17:12:00;98952.31;;;11.47;70.13
4024;BME280;2026;51.002;13.668;2023-02-20T17:17:04;98956.97;;;11.45;70.96
4024;BME280;2026;51.002;13.668;2023-02-20T17:22:09;98972.28;;;11.48;70.60
4024;BME280;2026;51.002;13.668;2023-02-20T17:27:14;98975.03;;;11.53;71.07
4024;BME280;2026;51.002;13.668;2023-02-20T17:32:18;98975.69;;;11.49;71.32
4024;BME280;2026;51.002;13.668;2023-02-20T17:37:22;98975.28;;;11.52;71.37
4024;BME280;2026;51.002;13.668;2023-02-20T17:42:27;98977.09;;;11.51;71.91
4024;BME280;2026;51.002;13.668;2023-02-20T17:47:32;98977.53;;;11.48;72.34
4024;BME280;2026;51.002;13.668;2023-02-20T17:52:35;98975.28;;;11.52;72.23
4024;BME280;2026;51.002;13.668;2023-02-20T17:57:39;98982.72;;;11.55;71.70
4024;BME280;2026;51.002;13.668;2023-02-20T18:02:43;98981.31;;;11.52;72.00
4024;BME280;2026;51.002;13.668;2023-02-20T18:07:49;98990.44;;;11.50;71.77
4024;BME280;2026;51.002;13.668;2023-02-20T18:12:52;98989.91;;;11.41;72.54
4024;BME280;2026;51.002;13.668;2023-02-20T18:18:06;98991.81;;;11.34;72.96
4024;BME280;2026;51.002;13.668;2023-02-20T18:23:10;99011.03;;;11.27;73.29
4024;BME280;2026;51.002;13.668;2023-02-20T18:28:13;99007.81;;;10.49;78.45
4024;BME280;2026;51.002;13.668;2023-02-20T18:33:18;99045.66;;;10.28;79.96
4024;BME280;2026;51.002;13.668;2023-02-20T18:38:21;99063.94;;;9.96;82.45
4024;BME280;2026;51.002;13.668;2023-02-20T18:43:24;99074.88;;;9.72;83.52
4024;BME280;2026;51.002;13.668;2023-02-20T18:48:29;99061.34;;;9.82;83.57
4024;BME280;2026;51.002;13.668;2023-02-20T18:53:32;99053.28;;;9.84;83.38
4024;BME280;2026;51.002;13.668;2023-02-20T18:58:35;99051.41;;;10.04;81.87
4024;BME280;2026;51.002;13.668;2023-02-20T19:03:39;99039.72;;;10.07;80.83
4024;BME280;2026;51.002;13.668;2023-02-20T19:08:42;99032.69;;;10.01;80.95
4024;BME280;2026;51.002;13.668;2023-02-20T19:13:46;99024.78;;;10.14;81.36
4024;BME280;2026;51.002;13.668;2023-02-20T19:18:50;99017.13;;;10.13;81.78
4024;BME280;2026;51.002;13.668;2023-02-20T19:23:53;99019.97;;;10.04;81.85
4024;BME280;2026;51.002;13.668;2023-02-20T19:28:56;99012.66;;;10.13;81.61
4024;BME280;2026;51.002;13.668;2023-02-20T19:34:06;99014.63;;;10.25;81.06
4024;BME280;2026;51.002;13.668;2023-02-20T19:39:09;99011.44;;;10.16;81.55
4024;BME280;2026;51.002;13.668;2023-02-20T19:44:13;99021.91;;;10.23;81.51
4024;BME280;2026;51.002;13.668;2023-02-20T19:49:19;99011.81;;;10.19;81.25
4024;BME280;2026;51.002;13.668;2023-02-20T19:54:24;98999.94;;;10.17;81.55
4024;BME280;2026;51.002;13.668;2023-02-20T19:59:28;98969.75;;;10.14;81.17
4024;BME280;2026;51.002;13.668;2023-02-20T20:04:33;98986.47;;;10.13;80.97
4024;BME280;2026;51.002;13.668;2023-02-20T20:09:36;98981.28;;;10.07;81.30
4024;BME280;2026;51.002;13.668;2023-02-20T20:14:39;98979.22;;;10.15;80.84
4024;BME280;2026;51.002;13.668;2023-02-20T20:19:43;98976.63;;;10.09;80.89
4024;BME280;2026;51.002;13.668;2023-02-20T20:24:59;98988.31;;;10.06;80.81
4024;BME280;2026;51.002;13.668;2023-02-20T20:30:02;98985.88;;;10.11;80.77
4024;BME280;2026;51.002;13.668;2023-02-20T20:35:07;98979.22;;;10.15;81.03
4024;BME280;2026;51.002;13.668;2023-02-20T20:40:11;98988.34;;;9.99;81.17
4024;BME280;2026;51.002;13.668;2023-02-20T20:45:16;98993.78;;;9.98;81.23
4024;BME280;2026;51.002;13.668;2023-02-20T20:50:22;98991.03;;;9.93;81.89
4024;BME280;2026;51.002;13.668;2023-02-20T20:55:28;98982.44;;;9.72;83.13
4024;BME280;2026;51.002;13.668;2023-02-20T21:00:33;98975.41;;;9.66;83.49
4024;BME280;2026;51.002;13.668;2023-02-20T21:05:37;98970.78;;;9.68;83.13
4024;BME280;2026;51.002;13.668;2023-02-20T21:10:40;98966.97;;;9.50;83.82
4024;BME280;2026;51.002;13.668;2023-02-20T21:15:43;98967.78;;;9.57;83.44
4024;BME280;2026;51.002;13.668;2023-02-20T21:20:48;98965.16;;;9.64;83.64
4024;BME280;2026;51.002;13.668;2023-02-20T21:25:51;98963.94;;;9.60;83.12
4024;BME280;2026;51.002;13.668;2023-02-20T21:30:53;98974.63;;;9.58;83.02
4024;BME280;2026;51.002;13.668;2023-02-20T21:35:58;98975.78;;;9.69;82.70
4024;BME280;2026;51.002;13.668;2023-02-20T21:41:02;98978.63;;;9.68;82.36
4024;BME280;2026;51.002;13.668;2023-02-20T21:46:07;98977.78;;;9.74;82.30
4024;BME280;2026;51.002;13.668;2023-02-20T21:51:12;98977.22;;;9.65;82.02
4024;BME280;2026;51.002;13.668;2023-02-20T21:56:15;98966.09;;;9.83;80.79
4024;BME280;2026;51.002;13.668;2023-02-20T22:01:18;98972.94;;;9.77;81.09
4024;BME280;2026;51.002;13.668;2023-02-20T22:06:21;98973.38;;;9.74;80.60
4024;BME280;2026;51.002;13.668;2023-02-20T22:11:23;98971.78;;;9.67;80.76
4024;BME280;2026;51.002;13.668;2023-02-20T22:16:44;98977.00;;;9.73;80.66
4024;BME280;2026;51.002;13.668;2023-02-20T22:22:05;98968.53;;;9.71;81.13
4024;BME280;2026;51.002;13.668;2023-02-20T22:27:25;98968.53;;;9.78;80.76
4024;BME280;2026;51.002;13.668;2023-02-20T22:32:46;98969.34;;;9.72;81.18
4024;BME280;2026;51.002;13.668;2023-02-20T22:38:08;98967.56;;;9.66;81.11
4024;BME280;2026;51.002;13.668;2023-02-20T22:43:28;98952.84;;;9.64;80.89
4024;BME280;2026;51.002;13.668;2023-02-20T22:48:48;98948.25;;;9.60;80.39
4024;BME280;2026;51.002;13.668;2023-02-20T22:54:10;98942.81;;;9.61;79.76
4024;BME280;2026;51.002;13.668;2023-02-20T22:59:31;98940.19;;;9.61;80.01
4024;BME280;2026;51.002;13.668;2023-02-20T23:04:51;98933.50;;;9.66;79.43
4024;BME280;2026;51.002;13.668;2023-02-20T23:10:15;98943.41;;;9.63;79.37
4024;BME280;2026;51.002;13.668;2023-02-20T23:15:35;98928.47;;;9.71;78.40
4024;BME280;2026;51.002;13.668;2023-02-20T23:20:56;98942.44;;;9.51;78.87
4024;BME280;2026;51.002;13.668;2023-02-20T23:26:18;98946.03;;;9.50;78.98
4024;BME280;2026;51.002;13.668;2023-02-20T23:31:40;98956.72;;;9.42;79.77
4024;BME280;2026;51.002;13.668;2023-02-20T23:37:01;98953.09;;;9.43;79.92
4024;BME280;2026;51.002;13.668;2023-02-20T23:42:22;98953.91;;;9.43;79.48
4024;BME280;2026;51.002;13.668;2023-02-20T23:47:43;98943.09;;;9.33;80.13
4024;BME280;2026;51.002;13.668;2023-02-20T23:53:03;98923.56;;;9.29;80.04
4024;BME280;2026;51.002;13.668;2023-02-20T23:58:24;98923.13;;;9.32;79.59
